MSC Bettina — HPFG — position and weather

sailwx.info

Track history (hours):
 
Tides and Currents Weather Stations Pressure Air Temp Water Temp Dewpoint Dewpoint Depression Visibility Wind Speed Wind Dir Waves Ship Positions

MSC Bettina

Last reported at 2016-Dec-08 13:33 UTC. Time now 2016-Dec-09 00:08 UTC.
Position N 22°24' E 113°53'.

Length 366 m; draft 13.5 m.

Type: Ship (hazmat cat A). MMSI: 352361000.

Date/timePositionNaut miles runAvg speedWind from/ knotsBaromVisibWave heightAir tempDewpointWater temp
2016-Dec-08 13:33N 22°24' E 113°53'4 3.5
2016-Dec-08 12:33N 22°28' E 113°53'0 0.0
2016-Dec-08 11:31N 22°28' E 113°53'0 0.0
2016-Dec-08 10:33N 22°28' E 113°53'0 0.0
2016-Dec-08 09:33N 22°28' E 113°53'0 0.0
2016-Dec-08 08:31N 22°28' E 113°53'0 0.0
2016-Dec-08 07:33N 22°28' E 113°53'0 0.0
2016-Dec-08 06:31N 22°28' E 113°53'0 0.0
2016-Dec-08 05:33N 22°28' E 113°53'0 0.0
2016-Dec-08 04:33N 22°28' E 113°53'0 0.0
2016-Dec-08 03:26N 22°28' E 113°53'1 1.4
2016-Dec-08 02:33N 22°27' E 113°53'10 7.5
2016-Dec-08 01:10N 22°21' E 114°03'16 3.4
2016-Dec-07 20:28N 22°11' E 113°49'1415.6
2016-Dec-07 19:33N 22°25' E 113°46'14 1.1
2016-Dec-07 07:33N 22°38' E 113°42'1712.3
2016-Dec-07 06:08N 22°22' E 113°47'24312.2
2016-Dec-06 10:11N 23°36' E 117°58'1014.8
2016-Dec-06 09:32N 23°43' E 118°05'1514.9
2016-Dec-06 08:33N 23°54' E 118°16'1413.9
2016-Dec-06 07:33N 24°08' E 118°20'1313.5
2016-Dec-06 06:34N 24°19' E 118°12'1111.5
2016-Dec-06 05:34N 24°26' E 118°02'1 0.7
2016-Dec-06 04:29N 24°27' E 118°01'0 0.0
2016-Dec-06 03:32N 24°27' E 118°01'0 0.0
2016-Dec-06 02:32N 24°27' E 118°01'0 0.0
2016-Dec-06 01:32N 24°27' E 118°01'0 0.0
2016-Dec-06 00:32N 24°27' E 118°01'0 0.0
2016-Dec-05 23:32N 24°27' E 118°01'0 0.0
2016-Dec-05 22:32N 24°27' E 118°01'0 0.0
2016-Dec-05 21:29N 24°27' E 118°01'2 1.7
2016-Dec-05 20:34N 24°26' E 118°03'10 9.8
2016-Dec-05 19:33N 24°20' E 118°11'1010.4
2016-Dec-05 18:33N 24°12' E 118°19'1311.4
2016-Dec-05 17:26N 24°15' E 118°32'1719.6
2016-Dec-05 16:33N 24°19' E 118°51'42316.7
2016-Dec-04 15:14N 30°26' E 122°48'5 0.2
2016-Dec-03 14:23N 30°29' E 122°43'910.1
2016-Dec-03 13:28N 30°22' E 122°50'8 8.4
2016-Dec-03 12:33N 30°16' E 122°56'19 6.3
2016-Dec-03 09:33N 29°57' E 122°52'8 7.9
2016-Dec-03 08:34N 29°51' E 122°47'8 8.1
2016-Dec-03 07:33N 29°45' E 122°41'8 8.1
2016-Dec-03 06:33N 29°40' E 122°33'9 8.6
2016-Dec-03 05:34N 29°43' E 122°23'1010.2
2016-Dec-03 04:33N 29°49' E 122°14'10 9.4
2016-Dec-03 03:32N 29°55' E 122°05'2 2.3
2016-Dec-03 02:33N 29°53' E 122°03'0 0.0
2016-Dec-03 01:33N 29°53' E 122°03'0 0.0
2016-Dec-03 00:33N 29°53' E 122°03'0 0.0
2016-Dec-02 23:33N 29°53' E 122°03'0 0.0
2016-Dec-02 22:33N 29°53' E 122°03'0 0.0
2016-Dec-02 21:33N 29°53' E 122°03'0 0.0
2016-Dec-02 20:32N 29°53' E 122°03'0 0.0
2016-Dec-02 19:33N 29°53' E 122°03'0 0.0
2016-Dec-02 18:33N 29°53' E 122°03'0 0.0
2016-Dec-02 17:33N 29°53' E 122°03'0 0.0
2016-Dec-02 16:33N 29°53' E 122°03'0 0.0
2016-Dec-02 15:33N 29°53' E 122°03'0 0.0
2016-Dec-02 14:33N 29°53' E 122°03'0 0.0
2016-Dec-02 13:33N 29°53' E 122°03'0 0.0
2016-Dec-02 12:33N 29°53' E 122°03'0 0.0
2016-Dec-02 11:33N 29°53' E 122°03'0 0.0
2016-Dec-02 10:33N 29°53' E 122°03'0 0.0
2016-Dec-02 09:33N 29°53' E 122°03'0 0.0
2016-Dec-02 08:32N 29°53' E 122°03'0 0.0
2016-Dec-02 07:33N 29°53' E 122°03'0 0.0
2016-Dec-02 06:28N 29°53' E 122°03'0 0.0
2016-Dec-02 05:32N 29°53' E 122°03'0 0.0
2016-Dec-02 04:29N 29°53' E 122°03'0 0.0
2016-Dec-02 03:33N 29°53' E 122°03'0 0.0
2016-Dec-02 02:33N 29°53' E 122°03'0 0.0
2016-Dec-02 01:33N 29°53' E 122°03'0 0.0
2016-Dec-02 00:33N 29°53' E 122°03'0 0.0
2016-Dec-01 23:33N 29°53' E 122°03'4 3.9
2016-Dec-01 22:33N 29°55' E 122°06'1110.8
2016-Dec-01 21:32N 29°48' E 122°15'1010.3
2016-Dec-01 20:33N 29°43' E 122°26'9 8.3
2016-Dec-01 19:26N 29°42' E 122°37'  
Track history (hours):
 
Tides and Currents Weather Stations Pressure Air Temp Water Temp Dewpoint Dewpoint Depression Visibility Wind Speed Wind Dir Waves Ship Positions

MSC Bettina

Last reported at 2016-Dec-08 13:33 UTC. Time now 2016-Dec-09 00:08 UTC.
Position N 22°24' E 113°53'.

Length 366 m; draft 13.5 m.

Type: Ship (hazmat cat A). MMSI: 352361000.

Date/timePositionNaut miles runAvg speedWind from/ knotsBaromVisibWave heightAir tempDewpointWater temp
2016-Dec-08 13:33N 22°24' E 113°53'4 3.5
2016-Dec-08 12:33N 22°28' E 113°53'0 0.0
2016-Dec-08 11:31N 22°28' E 113°53'0 0.0
2016-Dec-08 10:33N 22°28' E 113°53'0 0.0
2016-Dec-08 09:33N 22°28' E 113°53'0 0.0
2016-Dec-08 08:31N 22°28' E 113°53'0 0.0
2016-Dec-08 07:33N 22°28' E 113°53'0 0.0
2016-Dec-08 06:31N 22°28' E 113°53'0 0.0
2016-Dec-08 05:33N 22°28' E 113°53'0 0.0
2016-Dec-08 04:33N 22°28' E 113°53'0 0.0
2016-Dec-08 03:26N 22°28' E 113°53'1 1.4
2016-Dec-08 02:33N 22°27' E 113°53'10 7.5
2016-Dec-08 01:10N 22°21' E 114°03'16 3.4
2016-Dec-07 20:28N 22°11' E 113°49'1415.6
2016-Dec-07 19:33N 22°25' E 113°46'14 1.1
2016-Dec-07 07:33N 22°38' E 113°42'1712.3
2016-Dec-07 06:08N 22°22' E 113°47'24312.2
2016-Dec-06 10:11N 23°36' E 117°58'1014.8
2016-Dec-06 09:32N 23°43' E 118°05'1514.9
2016-Dec-06 08:33N 23°54' E 118°16'1413.9
2016-Dec-06 07:33N 24°08' E 118°20'1313.5
2016-Dec-06 06:34N 24°19' E 118°12'1111.5
2016-Dec-06 05:34N 24°26' E 118°02'1 0.7
2016-Dec-06 04:29N 24°27' E 118°01'0 0.0
2016-Dec-06 03:32N 24°27' E 118°01'0 0.0
2016-Dec-06 02:32N 24°27' E 118°01'0 0.0
2016-Dec-06 01:32N 24°27' E 118°01'0 0.0
2016-Dec-06 00:32N 24°27' E 118°01'0 0.0
2016-Dec-05 23:32N 24°27' E 118°01'0 0.0
2016-Dec-05 22:32N 24°27' E 118°01'0 0.0
2016-Dec-05 21:29N 24°27' E 118°01'2 1.7
2016-Dec-05 20:34N 24°26' E 118°03'10 9.8
2016-Dec-05 19:33N 24°20' E 118°11'1010.4
2016-Dec-05 18:33N 24°12' E 118°19'1311.4
2016-Dec-05 17:26N 24°15' E 118°32'1719.6
2016-Dec-05 16:33N 24°19' E 118°51'42316.7
2016-Dec-04 15:14N 30°26' E 122°48'5 0.2
2016-Dec-03 14:23N 30°29' E 122°43'910.1
2016-Dec-03 13:28N 30°22' E 122°50'8 8.4
2016-Dec-03 12:33N 30°16' E 122°56'19 6.3
2016-Dec-03 09:33N 29°57' E 122°52'8 7.9
2016-Dec-03 08:34N 29°51' E 122°47'8 8.1
2016-Dec-03 07:33N 29°45' E 122°41'8 8.1
2016-Dec-03 06:33N 29°40' E 122°33'9 8.6
2016-Dec-03 05:34N 29°43' E 122°23'1010.2
2016-Dec-03 04:33N 29°49' E 122°14'10 9.4
2016-Dec-03 03:32N 29°55' E 122°05'2 2.3
2016-Dec-03 02:33N 29°53' E 122°03'0 0.0
2016-Dec-03 01:33N 29°53' E 122°03'0 0.0
2016-Dec-03 00:33N 29°53' E 122°03'0 0.0
2016-Dec-02 23:33N 29°53' E 122°03'0 0.0
2016-Dec-02 22:33N 29°53' E 122°03'0 0.0
2016-Dec-02 21:33N 29°53' E 122°03'0 0.0
2016-Dec-02 20:32N 29°53' E 122°03'0 0.0
2016-Dec-02 19:33N 29°53' E 122°03'0 0.0
2016-Dec-02 18:33N 29°53' E 122°03'0 0.0
2016-Dec-02 17:33N 29°53' E 122°03'0 0.0
2016-Dec-02 16:33N 29°53' E 122°03'0 0.0
2016-Dec-02 15:33N 29°53' E 122°03'0 0.0
2016-Dec-02 14:33N 29°53' E 122°03'0 0.0
2016-Dec-02 13:33N 29°53' E 122°03'0 0.0
2016-Dec-02 12:33N 29°53' E 122°03'0 0.0
2016-Dec-02 11:33N 29°53' E 122°03'0 0.0
2016-Dec-02 10:33N 29°53' E 122°03'0 0.0
2016-Dec-02 09:33N 29°53' E 122°03'0 0.0
2016-Dec-02 08:32N 29°53' E 122°03'0 0.0
2016-Dec-02 07:33N 29°53' E 122°03'0 0.0
2016-Dec-02 06:28N 29°53' E 122°03'0 0.0
2016-Dec-02 05:32N 29°53' E 122°03'0 0.0
2016-Dec-02 04:29N 29°53' E 122°03'0 0.0
2016-Dec-02 03:33N 29°53' E 122°03'0 0.0
2016-Dec-02 02:33N 29°53' E 122°03'0 0.0
2016-Dec-02 01:33N 29°53' E 122°03'0 0.0
2016-Dec-02 00:33N 29°53' E 122°03'0 0.0
2016-Dec-01 23:33N 29°53' E 122°03'4 3.9
2016-Dec-01 22:33N 29°55' E 122°06'1110.8
2016-Dec-01 21:32N 29°48' E 122°15'1010.3
2016-Dec-01 20:33N 29°43' E 122°26'9 8.3
2016-Dec-01 19:26N 29°42' E 122°37'  

Dump ship's entire track history